createdAt,value
2019-02-26T00:02:32.494Z,35.30
2019-02-26T00:07:39.255Z,35.30
2019-02-26T00:12:45.790Z,35.20
2019-02-26T00:17:50.869Z,35.20
2019-02-26T00:22:57.473Z,35.20
2019-02-26T00:28:01.420Z,35.20
2019-02-26T00:33:06.726Z,35.30
2019-02-26T00:38:11.605Z,35.20
2019-02-26T00:43:15.812Z,35.20
2019-02-26T00:48:19.459Z,35.20
2019-02-26T00:53:23.666Z,35.20
2019-02-26T00:58:28.575Z,35.10
2019-02-26T01:03:32.217Z,35.10
2019-02-26T01:08:37.842Z,35.10
2019-02-26T01:13:41.388Z,35.10
2019-02-26T01:18:49.381Z,35.10
2019-02-26T01:23:52.986Z,35.10
2019-02-26T01:28:58.586Z,35.20
2019-02-26T01:34:02.739Z,35.20
2019-02-26T01:39:11.252Z,35.20
2019-02-26T01:44:13.766Z,35.20
2019-02-26T01:49:19.164Z,35.20
2019-02-26T01:54:22.841Z,35.20
2019-02-26T01:59:26.523Z,35.20
2019-02-26T02:04:31.941Z,35.20
2019-02-26T02:09:35.593Z,35.20
2019-02-26T02:14:39.325Z,35.20
2019-02-26T02:19:43.033Z,35.20
2019-02-26T02:24:48.415Z,35.20
2019-02-26T02:29:54.823Z,35.30
2019-02-26T02:35:00.520Z,35.30
2019-02-26T02:40:02.904Z,35.40
2019-02-26T02:45:10.015Z,35.30
2019-02-26T02:50:15.272Z,35.30
2019-02-26T02:55:19.293Z,35.30
2019-02-26T03:00:25.930Z,35.20
2019-02-26T03:05:31.312Z,35.30
2019-02-26T03:10:36.613Z,35.40
2019-02-26T03:15:39.609Z,35.30
2019-02-26T03:20:43.302Z,35.30
2019-02-26T03:25:47.875Z,35.30
2019-02-26T03:30:52.418Z,35.30
2019-02-26T03:35:56.112Z,35.30
2019-02-26T03:41:03.215Z,35.30
2019-02-26T03:46:05.151Z,35.30
2019-02-26T03:51:09.145Z,35.90
2019-02-26T03:56:14.929Z,35.30
2019-02-26T04:01:19.425Z,35.30
2019-02-26T04:06:23.739Z,35.30
2019-02-26T04:11:27.796Z,35.30
2019-02-26T04:16:32.367Z,35.30
2019-02-26T04:22:15.286Z,35.30
2019-02-26T04:27:51.172Z,35.30
2019-02-26T04:33:30.170Z,35.40
2019-02-26T04:39:23.517Z,35.30
2019-02-26T04:45:13.693Z,35.40
2019-02-26T04:50:17.379Z,35.30
2019-02-26T04:55:21.098Z,35.30
2019-02-26T05:00:28.007Z,35.30
2019-02-26T05:05:31.974Z,35.10
2019-02-26T05:10:35.781Z,35.10
2019-02-26T05:15:39.473Z,35.20
2019-02-26T05:20:47.223Z,35.70
2019-02-26T05:25:48.527Z,35.70
2019-02-26T05:30:52.191Z,35.90
2019-02-26T05:35:55.917Z,36.60
2019-02-26T05:40:59.637Z,36.20
2019-02-26T05:46:03.994Z,36.30
2019-02-26T05:51:10.868Z,36.70
2019-02-26T05:56:14.575Z,37.20
2019-02-26T06:01:20.019Z,36.60
2019-02-26T06:06:24.846Z,36.50
2019-02-26T06:11:33.271Z,36.40
2019-02-26T06:16:33.994Z,36.20
2019-02-26T06:21:41.849Z,36.20
2019-02-26T06:26:45.402Z,36.10
2019-02-26T06:31:49.406Z,36.00
2019-02-26T06:37:09.362Z,35.90
2019-02-26T06:42:14.430Z,35.90
2019-02-26T06:47:18.257Z,35.90
2019-02-26T06:52:22.068Z,35.80
2019-02-26T06:57:25.990Z,35.70
2019-02-26T07:02:29.790Z,35.80
2019-02-26T07:07:33.586Z,35.70
2019-02-26T07:12:38.766Z,35.60
2019-02-26T07:17:45.636Z,35.60
2019-02-26T07:22:49.656Z,35.50
2019-02-26T07:27:55.827Z,35.40
2019-02-26T07:32:59.811Z,35.40
2019-02-26T07:38:03.698Z,35.30
2019-02-26T07:43:11.562Z,35.30
2019-02-26T07:48:16.269Z,35.30
2019-02-26T07:53:21.628Z,35.30
2019-02-26T07:58:24.285Z,35.10
2019-02-26T08:03:29.415Z,35.10
2019-02-26T08:08:33.640Z,35.00
2019-02-26T08:13:38.618Z,34.90
2019-02-26T08:18:42.520Z,34.80
2019-02-26T08:23:48.246Z,34.80
2019-02-26T08:28:51.659Z,34.80
2019-02-26T08:33:55.341Z,34.70
2019-02-26T08:38:59.573Z,34.60
2019-02-26T08:44:03.497Z,34.60
2019-02-26T08:49:08.709Z,34.60
2019-02-26T08:54:20.482Z,34.50
2019-02-26T08:59:20.097Z,34.50
2019-02-26T09:04:24.033Z,34.50
2019-02-26T09:09:30.027Z,34.40
2019-02-26T09:14:37.294Z,34.40
2019-02-26T09:19:38.696Z,34.30
2019-02-26T09:24:42.505Z,34.30
2019-02-26T09:29:49.592Z,34.30
2019-02-26T09:34:52.105Z,34.30
2019-02-26T09:39:59.121Z,34.30
2019-02-26T09:45:02.660Z,34.30
2019-02-26T09:50:07.999Z,34.60
2019-02-26T09:55:13.080Z,34.30
2019-02-26T10:00:19.475Z,34.30
2019-02-26T10:05:22.749Z,34.30
2019-02-26T10:10:29.155Z,34.30
2019-02-26T10:15:32.799Z,34.30
2019-02-26T10:20:37.427Z,34.30
2019-02-26T10:25:41.147Z,34.20
2019-02-26T10:30:45.147Z,34.20
2019-02-26T10:35:49.889Z,34.20
2019-02-26T10:40:56.689Z,34.20
2019-02-26T10:45:59.224Z,34.20
2019-02-26T10:51:06.043Z,34.10
2019-02-26T10:56:08.432Z,34.20
2019-02-26T11:01:12.378Z,34.10
2019-02-26T11:06:18.769Z,34.10
2019-02-26T11:11:21.593Z,34.10
2019-02-26T11:16:27.820Z,34.00
2019-02-26T11:21:30.733Z,34.10
2019-02-26T11:26:35.940Z,34.10
2019-02-26T11:31:41.859Z,34.00
2019-02-26T11:36:45.440Z,34.10
2019-02-26T11:41:53.473Z,34.10
2019-02-26T11:46:56.497Z,34.00
2019-02-26T11:52:01.640Z,34.00
2019-02-26T11:57:09.791Z,34.00
2019-02-26T12:02:11.984Z,34.00
2019-02-26T12:07:15.716Z,34.00
2019-02-26T12:12:19.542Z,34.00
2019-02-26T12:17:23.347Z,34.00
2019-02-26T12:22:27.910Z,34.00
2019-02-26T12:27:36.002Z,34.00
2019-02-26T12:32:38.371Z,34.00
2019-02-26T12:37:42.137Z,34.00
2019-02-26T12:42:46.908Z,34.10
2019-02-26T12:47:53.090Z,34.10
2019-02-26T12:52:57.047Z,34.00
2019-02-26T12:58:01.242Z,34.00
2019-02-26T13:03:05.587Z,34.00
2019-02-26T13:08:12.709Z,34.10
2019-02-26T13:13:17.586Z,34.00
2019-02-26T13:18:22.451Z,34.10
2019-02-26T13:23:26.260Z,34.00
2019-02-26T13:28:29.997Z,34.00
2019-02-26T13:33:37.394Z,34.10
2019-02-26T13:38:44.645Z,34.00
2019-02-26T13:43:44.649Z,34.00
2019-02-26T13:48:48.424Z,34.10
2019-02-26T13:53:52.216Z,34.00
2019-02-26T13:58:56.021Z,34.00
2019-02-26T14:03:59.865Z,34.10
2019-02-26T14:09:03.886Z,34.00
2019-02-26T14:14:07.657Z,34.10
2019-02-26T14:19:11.366Z,34.00
2019-02-26T14:24:15.477Z,34.00
2019-02-26T14:29:19.211Z,34.10
2019-02-26T14:34:23.302Z,34.10
2019-02-26T14:39:27.077Z,34.70
2019-02-26T14:44:30.875Z,34.00
2019-02-26T14:49:34.689Z,34.00
2019-02-26T14:54:38.510Z,34.10
2019-02-26T14:59:42.501Z,34.10
2019-02-26T15:04:46.348Z,34.70
2019-02-26T15:09:50.222Z,34.10
2019-02-26T15:14:54.432Z,34.10
2019-02-26T15:19:58.440Z,34.20
2019-02-26T15:25:02.389Z,34.10
2019-02-26T15:30:07.028Z,34.10
2019-02-26T15:35:10.822Z,34.20
2019-02-26T15:40:14.985Z,34.10
2019-02-26T15:45:20.284Z,34.10
2019-02-26T15:50:24.441Z,34.10
2019-02-26T15:55:29.215Z,34.10
2019-02-26T16:00:33.335Z,34.10
2019-02-26T16:05:37.243Z,34.10
2019-02-26T16:10:42.061Z,34.10
2019-02-26T16:15:45.846Z,34.20
2019-02-26T16:20:49.994Z,34.20
2019-02-26T16:25:53.835Z,34.30
2019-02-26T16:31:17.007Z,34.30
2019-02-26T16:36:20.867Z,34.30
2019-02-26T16:41:26.976Z,34.30
2019-02-26T16:46:30.736Z,34.30
2019-02-26T16:51:34.734Z,34.40
2019-02-26T16:56:38.485Z,34.40
2019-02-26T17:01:43.155Z,34.40
2019-02-26T17:06:46.947Z,34.50
2019-02-26T17:11:51.584Z,34.40
2019-02-26T17:16:55.418Z,34.50
2019-02-26T17:21:59.219Z,34.50
2019-02-26T17:27:03.453Z,34.50
2019-02-26T17:32:08.645Z,34.50
2019-02-26T17:37:12.902Z,34.60
2019-02-26T17:42:17.850Z,34.60
2019-02-26T17:47:22.363Z,34.60
2019-02-26T17:52:26.329Z,34.60
2019-02-26T17:57:31.996Z,34.60
2019-02-26T18:02:35.413Z,34.60
2019-02-26T18:07:39.318Z,34.60
2019-02-26T18:12:50.149Z,34.60
2019-02-26T18:17:54.052Z,34.70
2019-02-26T18:23:00.170Z,34.60
2019-02-26T18:28:03.534Z,34.70
2019-02-26T18:33:07.429Z,34.70
2019-02-26T18:38:12.433Z,34.70
2019-02-26T18:43:17.852Z,34.60
2019-02-26T18:48:21.737Z,34.70
2019-02-26T18:53:25.807Z,34.70
2019-02-26T18:58:34.743Z,34.70
2019-02-26T19:03:39.368Z,34.80
2019-02-26T19:08:43.897Z,34.80
2019-02-26T19:14:09.160Z,34.80
2019-02-26T19:19:12.590Z,34.90
2019-02-26T19:24:17.709Z,35.00
2019-02-26T19:29:21.492Z,35.10
2019-02-26T19:34:28.084Z,35.20
2019-02-26T19:39:33.586Z,35.40
2019-02-26T19:44:36.521Z,35.70
2019-02-26T19:49:40.323Z,35.90
2019-02-26T19:54:44.082Z,36.20
2019-02-26T19:59:47.914Z,36.20
2019-02-26T20:04:51.653Z,36.40
2019-02-26T20:09:55.421Z,36.50
2019-02-26T20:14:59.249Z,36.40
2019-02-26T20:20:05.146Z,36.40
2019-02-26T20:25:11.756Z,36.40
2019-02-26T20:30:17.137Z,36.40
2019-02-26T20:35:21.028Z,36.40
2019-02-26T20:40:24.910Z,36.40
2019-02-26T20:45:28.828Z,36.50
2019-02-26T20:50:32.614Z,36.50
2019-02-26T20:55:36.449Z,36.40
2019-02-26T21:00:42.447Z,36.40
2019-02-26T21:05:46.020Z,36.30
2019-02-26T21:10:49.830Z,36.20
2019-02-26T21:15:53.581Z,36.10
2019-02-26T21:20:57.327Z,36.10
2019-02-26T21:26:01.428Z,35.90
2019-02-26T21:31:06.240Z,36.10
2019-02-26T21:36:13.505Z,35.90
2019-02-26T21:41:17.302Z,35.90
2019-02-26T21:46:22.719Z,36.40
2019-02-26T21:51:29.382Z,35.90
2019-02-26T21:56:33.176Z,36.00
2019-02-26T22:01:36.899Z,36.00
2019-02-26T22:06:44.459Z,35.90
2019-02-26T22:11:46.054Z,35.90
2019-02-26T22:16:51.399Z,35.80
2019-02-26T22:21:55.634Z,35.80
2019-02-26T22:27:00.167Z,35.80
2019-02-26T22:32:05.689Z,35.80
2019-02-26T22:37:10.384Z,35.80
2019-02-26T22:42:14.202Z,35.70
2019-02-26T22:47:17.952Z,35.70
2019-02-26T22:52:22.675Z,35.70
2019-02-26T22:57:27.635Z,35.80
2019-02-26T23:02:35.341Z,35.60
2019-02-26T23:07:39.896Z,35.70
2019-02-26T23:12:43.767Z,35.60
2019-02-26T23:17:47.762Z,35.60
2019-02-26T23:22:51.516Z,35.60
2019-02-26T23:27:55.852Z,35.60
2019-02-26T23:32:59.651Z,35.60
2019-02-26T23:38:09.181Z,35.60
2019-02-26T23:43:12.526Z,35.60
2019-02-26T23:48:16.627Z,35.50
2019-02-26T23:53:20.381Z,35.60
2019-02-26T23:58:24.158Z,35.50
